sensor_id;sensor_type;location;lat;lon;timestamp;P1;durP1;ratioP1;P2;durP2;ratioP2
39930;SDS011;26635;-35.248;149.138;2022-09-02T00:02:26;2.97;;;1.10;;
39930;SDS011;26635;-35.248;149.138;2022-09-02T00:04:59;3.17;;;0.90;;
39930;SDS011;26635;-35.248;149.138;2022-09-02T00:07:31;2.38;;;1.25;;
39930;SDS011;26635;-35.248;149.138;2022-09-02T00:10:03;5.43;;;1.85;;
39930;SDS011;26635;-35.248;149.138;2022-09-02T00:12:34;2.85;;;1.55;;
39930;SDS011;26635;-35.248;149.138;2022-09-02T00:15:06;3.47;;;1.25;;
39930;SDS011;26635;-35.248;149.138;2022-09-02T00:17:39;2.72;;;1.17;;
39930;SDS011;26635;-35.248;149.138;2022-09-02T00:20:10;3.05;;;1.20;;
39930;SDS011;26635;-35.248;149.138;2022-09-02T00:22:42;4.65;;;1.20;;
39930;SDS011;26635;-35.248;149.138;2022-09-02T00:25:16;3.83;;;1.38;;
39930;SDS011;26635;-35.248;149.138;2022-09-02T00:27:48;3.70;;;1.63;;
39930;SDS011;26635;-35.248;149.138;2022-09-02T00:30:18;3.53;;;1.30;;
39930;SDS011;26635;-35.248;149.138;2022-09-02T00:32:49;1.58;;;1.05;;
39930;SDS011;26635;-35.248;149.138;2022-09-02T00:35:20;3.05;;;1.13;;
39930;SDS011;26635;-35.248;149.138;2022-09-02T00:37:52;2.70;;;1.50;;
39930;SDS011;26635;-35.248;149.138;2022-09-02T00:40:25;1.67;;;0.70;;
39930;SDS011;26635;-35.248;149.138;2022-09-02T00:42:59;4.75;;;1.13;;
39930;SDS011;26635;-35.248;149.138;2022-09-02T00:45:34;4.22;;;1.45;;
39930;SDS011;26635;-35.248;149.138;2022-09-02T00:48:06;1.65;;;0.77;;
39930;SDS011;26635;-35.248;149.138;2022-09-02T00:50:37;1.98;;;0.70;;
39930;SDS011;26635;-35.248;149.138;2022-09-02T00:53:08;4.13;;;1.05;;
39930;SDS011;26635;-35.248;149.138;2022-09-02T00:55:46;2.85;;;0.60;;
39930;SDS011;26635;-35.248;149.138;2022-09-02T00:58:19;2.15;;;0.63;;
39930;SDS011;26635;-35.248;149.138;2022-09-02T01:00:56;1.40;;;0.77;;
39930;SDS011;26635;-35.248;149.138;2022-09-02T01:03:30;1.60;;;0.50;;
39930;SDS011;26635;-35.248;149.138;2022-09-02T01:06:03;6.68;;;0.90;;
39930;SDS011;26635;-35.248;149.138;2022-09-02T01:08:35;2.03;;;0.80;;
39930;SDS011;26635;-35.248;149.138;2022-09-02T01:11:10;0.80;;;0.55;;
39930;SDS011;26635;-35.248;149.138;2022-09-02T01:13:41;2.17;;;0.68;;
39930;SDS011;26635;-35.248;149.138;2022-09-02T01:16:24;3.30;;;0.70;;
39930;SDS011;26635;-35.248;149.138;2022-09-02T01:18:59;3.17;;;0.73;;
39930;SDS011;26635;-35.248;149.138;2022-09-02T01:21:33;2.75;;;0.77;;
39930;SDS011;26635;-35.248;149.138;2022-09-02T01:24:05;6.05;;;1.40;;
39930;SDS011;26635;-35.248;149.138;2022-09-02T01:26:35;1.27;;;0.73;;
39930;SDS011;26635;-35.248;149.138;2022-09-02T01:29:06;1.98;;;0.82;;
39930;SDS011;26635;-35.248;149.138;2022-09-02T01:31:37;4.18;;;1.08;;
39930;SDS011;26635;-35.248;149.138;2022-09-02T01:34:08;4.03;;;1.17;;
39930;SDS011;26635;-35.248;149.138;2022-09-02T01:36:40;2.53;;;0.93;;
39930;SDS011;26635;-35.248;149.138;2022-09-02T01:39:12;2.97;;;0.70;;
39930;SDS011;26635;-35.248;149.138;2022-09-02T01:41:44;1.83;;;0.70;;
39930;SDS011;26635;-35.248;149.138;2022-09-02T01:44:16;1.90;;;1.10;;
39930;SDS011;26635;-35.248;149.138;2022-09-02T01:46:48;1.92;;;0.68;;
39930;SDS011;26635;-35.248;149.138;2022-09-02T01:49:25;3.15;;;0.63;;
39930;SDS011;26635;-35.248;149.138;2022-09-02T01:54:41;1.13;;;0.50;;
39930;SDS011;26635;-35.248;149.138;2022-09-02T01:57:13;2.95;;;0.70;;
39930;SDS011;26635;-35.248;149.138;2022-09-02T01:59:49;3.08;;;0.80;;
39930;SDS011;26635;-35.248;149.138;2022-09-02T02:02:20;2.97;;;1.05;;
39930;SDS011;26635;-35.248;149.138;2022-09-02T02:04:51;4.82;;;0.70;;
39930;SDS011;26635;-35.248;149.138;2022-09-02T02:07:23;2.60;;;0.70;;
39930;SDS011;26635;-35.248;149.138;2022-09-02T02:09:55;2.35;;;0.73;;
39930;SDS011;26635;-35.248;149.138;2022-09-02T02:12:27;1.85;;;0.88;;
39930;SDS011;26635;-35.248;149.138;2022-09-02T02:15:00;3.08;;;0.80;;
39930;SDS011;26635;-35.248;149.138;2022-09-02T02:17:34;3.45;;;0.73;;
39930;SDS011;26635;-35.248;149.138;2022-09-02T02:20:06;2.25;;;1.13;;
39930;SDS011;26635;-35.248;149.138;2022-09-02T02:22:38;2.40;;;1.17;;
39930;SDS011;26635;-35.248;149.138;2022-09-02T02:25:10;2.97;;;1.00;;
39930;SDS011;26635;-35.248;149.138;2022-09-02T02:27:44;2.72;;;1.00;;
39930;SDS011;26635;-35.248;149.138;2022-09-02T02:30:15;6.72;;;1.58;;
39930;SDS011;26635;-35.248;149.138;2022-09-02T02:32:48;2.67;;;0.90;;
39930;SDS011;26635;-35.248;149.138;2022-09-02T02:35:23;3.70;;;1.30;;
39930;SDS011;26635;-35.248;149.138;2022-09-02T02:37:54;2.10;;;0.80;;
39930;SDS011;26635;-35.248;149.138;2022-09-02T02:40:29;1.88;;;0.80;;
39930;SDS011;26635;-35.248;149.138;2022-09-02T02:43:00;1.13;;;0.60;;
39930;SDS011;26635;-35.248;149.138;2022-09-02T02:45:30;2.88;;;0.60;;
39930;SDS011;26635;-35.248;149.138;2022-09-02T02:48:01;0.75;;;0.50;;
39930;SDS011;26635;-35.248;149.138;2022-09-02T02:50:31;4.15;;;0.68;;
39930;SDS011;26635;-35.248;149.138;2022-09-02T02:53:02;4.55;;;1.05;;
39930;SDS011;26635;-35.248;149.138;2022-09-02T02:55:33;1.65;;;0.90;;
39930;SDS011;26635;-35.248;149.138;2022-09-02T02:58:05;4.95;;;1.40;;
39930;SDS011;26635;-35.248;149.138;2022-09-02T03:00:42;4.65;;;1.50;;
39930;SDS011;26635;-35.248;149.138;2022-09-02T03:03:14;1.70;;;1.00;;
39930;SDS011;26635;-35.248;149.138;2022-09-02T03:05:49;2.00;;;0.60;;
39930;SDS011;26635;-35.248;149.138;2022-09-02T03:08:20;2.05;;;1.02;;
39930;SDS011;26635;-35.248;149.138;2022-09-02T03:11:01;0.77;;;0.75;;
39930;SDS011;26635;-35.248;149.138;2022-09-02T03:13:35;1.20;;;0.77;;
39930;SDS011;26635;-35.248;149.138;2022-09-02T03:16:05;2.38;;;0.75;;
39930;SDS011;26635;-35.248;149.138;2022-09-02T03:18:36;2.00;;;0.80;;
39930;SDS011;26635;-35.248;149.138;2022-09-02T03:21:07;2.83;;;0.80;;
39930;SDS011;26635;-35.248;149.138;2022-09-02T03:23:39;2.33;;;1.00;;
39930;SDS011;26635;-35.248;149.138;2022-09-02T03:26:10;3.17;;;1.10;;
39930;SDS011;26635;-35.248;149.138;2022-09-02T03:28:46;1.77;;;1.07;;
39930;SDS011;26635;-35.248;149.138;2022-09-02T03:31:19;2.35;;;0.70;;
39930;SDS011;26635;-35.248;149.138;2022-09-02T03:33:51;1.63;;;1.13;;
39930;SDS011;26635;-35.248;149.138;2022-09-02T03:36:32;1.30;;;0.68;;
39930;SDS011;26635;-35.248;149.138;2022-09-02T03:39:07;1.38;;;0.90;;
39930;SDS011;26635;-35.248;149.138;2022-09-02T03:41:40;2.63;;;0.70;;
39930;SDS011;26635;-35.248;149.138;2022-09-02T03:44:11;2.15;;;0.80;;
39930;SDS011;26635;-35.248;149.138;2022-09-02T03:46:45;2.85;;;1.08;;
39930;SDS011;26635;-35.248;149.138;2022-09-02T03:49:17;1.75;;;1.02;;
39930;SDS011;26635;-35.248;149.138;2022-09-02T03:51:49;3.03;;;0.88;;
39930;SDS011;26635;-35.248;149.138;2022-09-02T03:54:20;2.58;;;1.20;;
39930;SDS011;26635;-35.248;149.138;2022-09-02T03:56:51;2.55;;;1.08;;
39930;SDS011;26635;-35.248;149.138;2022-09-02T03:59:22;1.25;;;0.85;;
39930;SDS011;26635;-35.248;149.138;2022-09-02T04:01:54;1.10;;;0.88;;
39930;SDS011;26635;-35.248;149.138;2022-09-02T04:04:25;1.77;;;0.70;;
39930;SDS011;26635;-35.248;149.138;2022-09-02T04:06:57;1.67;;;0.80;;
39930;SDS011;26635;-35.248;149.138;2022-09-02T04:09:28;3.50;;;0.80;;
39930;SDS011;26635;-35.248;149.138;2022-09-02T04:11:59;1.40;;;0.70;;
39930;SDS011;26635;-35.248;149.138;2022-09-02T04:14:30;2.65;;;1.33;;
39930;SDS011;26635;-35.248;149.138;2022-09-02T04:17:02;2.53;;;0.73;;
39930;SDS011;26635;-35.248;149.138;2022-09-02T04:19:33;1.10;;;0.90;;
39930;SDS011;26635;-35.248;149.138;2022-09-02T04:22:07;2.20;;;0.70;;
39930;SDS011;26635;-35.248;149.138;2022-09-02T04:24:37;1.42;;;0.70;;
39930;SDS011;26635;-35.248;149.138;2022-09-02T04:27:08;2.47;;;0.80;;
39930;SDS011;26635;-35.248;149.138;2022-09-02T04:29:40;2.50;;;0.63;;
39930;SDS011;26635;-35.248;149.138;2022-09-02T04:32:12;0.60;;;0.50;;
39930;SDS011;26635;-35.248;149.138;2022-09-02T04:34:42;1.60;;;0.80;;
39930;SDS011;26635;-35.248;149.138;2022-09-02T04:37:16;1.70;;;0.70;;
39930;SDS011;26635;-35.248;149.138;2022-09-02T04:39:47;2.90;;;0.88;;
39930;SDS011;26635;-35.248;149.138;2022-09-02T04:42:18;1.38;;;0.70;;
39930;SDS011;26635;-35.248;149.138;2022-09-02T04:44:49;1.27;;;0.73;;
39930;SDS011;26635;-35.248;149.138;2022-09-02T04:47:21;1.67;;;0.88;;
39930;SDS011;26635;-35.248;149.138;2022-09-02T04:49:54;1.17;;;0.77;;
39930;SDS011;26635;-35.248;149.138;2022-09-02T04:52:26;1.40;;;1.00;;
39930;SDS011;26635;-35.248;149.138;2022-09-02T04:54:57;2.00;;;0.90;;
39930;SDS011;26635;-35.248;149.138;2022-09-02T04:57:28;1.63;;;0.73;;
39930;SDS011;26635;-35.248;149.138;2022-09-02T05:00:00;1.10;;;0.70;;
39930;SDS011;26635;-35.248;149.138;2022-09-02T05:02:34;1.35;;;0.60;;
39930;SDS011;26635;-35.248;149.138;2022-09-02T05:05:06;2.58;;;1.05;;
39930;SDS011;26635;-35.248;149.138;2022-09-02T05:07:38;2.08;;;1.00;;
39930;SDS011;26635;-35.248;149.138;2022-09-02T05:10:09;3.40;;;0.93;;
39930;SDS011;26635;-35.248;149.138;2022-09-02T05:12:41;2.83;;;1.00;;
39930;SDS011;26635;-35.248;149.138;2022-09-02T05:15:18;2.10;;;1.02;;
39930;SDS011;26635;-35.248;149.138;2022-09-02T05:17:49;1.80;;;1.08;;
39930;SDS011;26635;-35.248;149.138;2022-09-02T05:20:21;1.08;;;0.80;;
39930;SDS011;26635;-35.248;149.138;2022-09-02T05:22:52;1.10;;;0.90;;
39930;SDS011;26635;-35.248;149.138;2022-09-02T05:25:23;1.70;;;0.90;;
39930;SDS011;26635;-35.248;149.138;2022-09-02T05:27:54;2.25;;;1.17;;
39930;SDS011;26635;-35.248;149.138;2022-09-02T05:30:24;7.95;;;1.95;;
39930;SDS011;26635;-35.248;149.138;2022-09-02T05:32:57;3.30;;;1.02;;
39930;SDS011;26635;-35.248;149.138;2022-09-02T05:35:31;2.72;;;1.27;;
39930;SDS011;26635;-35.248;149.138;2022-09-02T05:38:09;2.58;;;1.20;;
39930;SDS011;26635;-35.248;149.138;2022-09-02T05:40:42;2.25;;;1.10;;
39930;SDS011;26635;-35.248;149.138;2022-09-02T05:43:14;2.35;;;1.23;;
39930;SDS011;26635;-35.248;149.138;2022-09-02T05:45:44;3.05;;;1.10;;
39930;SDS011;26635;-35.248;149.138;2022-09-02T05:48:17;2.05;;;0.90;;
39930;SDS011;26635;-35.248;149.138;2022-09-02T05:51:06;3.00;;;1.17;;
39930;SDS011;26635;-35.248;149.138;2022-09-02T05:53:37;2.75;;;1.00;;
39930;SDS011;26635;-35.248;149.138;2022-09-02T05:56:07;1.45;;;0.95;;
39930;SDS011;26635;-35.248;149.138;2022-09-02T05:58:39;1.63;;;1.15;;
39930;SDS011;26635;-35.248;149.138;2022-09-02T06:01:12;1.25;;;0.93;;
39930;SDS011;26635;-35.248;149.138;2022-09-02T06:03:43;2.05;;;0.95;;
39930;SDS011;26635;-35.248;149.138;2022-09-02T06:06:14;5.07;;;1.63;;
39930;SDS011;26635;-35.248;149.138;2022-09-02T06:08:48;2.25;;;1.17;;
39930;SDS011;26635;-35.248;149.138;2022-09-02T06:11:19;3.05;;;1.50;;
39930;SDS011;26635;-35.248;149.138;2022-09-02T06:13:50;2.78;;;1.58;;
39930;SDS011;26635;-35.248;149.138;2022-09-02T06:16:23;2.22;;;1.30;;
39930;SDS011;26635;-35.248;149.138;2022-09-02T06:18:55;2.58;;;1.50;;
39930;SDS011;26635;-35.248;149.138;2022-09-02T06:21:26;3.08;;;1.35;;
39930;SDS011;26635;-35.248;149.138;2022-09-02T06:23:59;1.92;;;1.58;;
39930;SDS011;26635;-35.248;149.138;2022-09-02T06:26:30;4.55;;;1.35;;
39930;SDS011;26635;-35.248;149.138;2022-09-02T06:29:01;2.35;;;1.48;;
39930;SDS011;26635;-35.248;149.138;2022-09-02T06:31:32;2.35;;;1.75;;
39930;SDS011;26635;-35.248;149.138;2022-09-02T06:34:03;2.70;;;1.30;;
39930;SDS011;26635;-35.248;149.138;2022-09-02T06:36:34;2.03;;;1.23;;
39930;SDS011;26635;-35.248;149.138;2022-09-02T06:39:05;3.08;;;1.70;;
39930;SDS011;26635;-35.248;149.138;2022-09-02T06:41:38;1.77;;;1.48;;
39930;SDS011;26635;-35.248;149.138;2022-09-02T06:44:10;2.80;;;1.73;;
39930;SDS011;26635;-35.248;149.138;2022-09-02T06:46:43;2.08;;;1.45;;
39930;SDS011;26635;-35.248;149.138;2022-09-02T06:49:20;2.22;;;1.60;;
39930;SDS011;26635;-35.248;149.138;2022-09-02T06:51:53;2.05;;;1.40;;
39930;SDS011;26635;-35.248;149.138;2022-09-02T06:54:25;1.73;;;1.63;;
39930;SDS011;26635;-35.248;149.138;2022-09-02T06:56:57;2.30;;;1.73;;
39930;SDS011;26635;-35.248;149.138;2022-09-02T06:59:28;2.28;;;1.60;;
39930;SDS011;26635;-35.248;149.138;2022-09-02T07:01:59;2.30;;;1.55;;
39930;SDS011;26635;-35.248;149.138;2022-09-02T07:04:31;2.00;;;1.40;;
39930;SDS011;26635;-35.248;149.138;2022-09-02T07:07:23;2.00;;;1.73;;
39930;SDS011;26635;-35.248;149.138;2022-09-02T07:09:54;3.45;;;1.58;;
39930;SDS011;26635;-35.248;149.138;2022-09-02T07:12:25;2.72;;;1.63;;
39930;SDS011;26635;-35.248;149.138;2022-09-02T07:14:57;2.30;;;1.55;;
39930;SDS011;26635;-35.248;149.138;2022-09-02T07:17:28;2.63;;;1.33;;
39930;SDS011;26635;-35.248;149.138;2022-09-02T07:20:03;2.33;;;1.55;;
39930;SDS011;26635;-35.248;149.138;2022-09-02T07:22:36;2.78;;;1.67;;
39930;SDS011;26635;-35.248;149.138;2022-09-02T07:25:07;5.25;;;1.65;;
39930;SDS011;26635;-35.248;149.138;2022-09-02T07:27:38;4.07;;;2.08;;
39930;SDS011;26635;-35.248;149.138;2022-09-02T07:30:11;3.78;;;1.70;;
39930;SDS011;26635;-35.248;149.138;2022-09-02T07:32:42;2.33;;;1.80;;
39930;SDS011;26635;-35.248;149.138;2022-09-02T07:35:14;2.90;;;2.20;;
39930;SDS011;26635;-35.248;149.138;2022-09-02T07:37:46;2.45;;;2.05;;
39930;SDS011;26635;-35.248;149.138;2022-09-02T07:40:19;3.03;;;2.05;;
39930;SDS011;26635;-35.248;149.138;2022-09-02T07:42:50;3.47;;;1.88;;
39930;SDS011;26635;-35.248;149.138;2022-09-02T07:45:21;3.47;;;2.13;;
39930;SDS011;26635;-35.248;149.138;2022-09-02T07:47:52;3.38;;;2.25;;
39930;SDS011;26635;-35.248;149.138;2022-09-02T07:50:23;2.47;;;1.90;;
39930;SDS011;26635;-35.248;149.138;2022-09-02T07:52:56;2.40;;;2.20;;
39930;SDS011;26635;-35.248;149.138;2022-09-02T07:55:27;2.88;;;2.30;;
39930;SDS011;26635;-35.248;149.138;2022-09-02T07:58:00;3.03;;;2.13;;
39930;SDS011;26635;-35.248;149.138;2022-09-02T08:00:33;3.42;;;2.92;;
39930;SDS011;26635;-35.248;149.138;2022-09-02T08:03:06;4.00;;;2.70;;
39930;SDS011;26635;-35.248;149.138;2022-09-02T08:05:38;3.92;;;2.03;;
39930;SDS011;26635;-35.248;149.138;2022-09-02T08:08:09;3.22;;;2.30;;
39930;SDS011;26635;-35.248;149.138;2022-09-02T08:10:41;3.08;;;2.20;;
39930;SDS011;26635;-35.248;149.138;2022-09-02T08:13:12;4.07;;;2.90;;
39930;SDS011;26635;-35.248;149.138;2022-09-02T08:15:44;3.55;;;2.90;;
39930;SDS011;26635;-35.248;149.138;2022-09-02T08:18:17;4.38;;;2.28;;
39930;SDS011;26635;-35.248;149.138;2022-09-02T08:20:49;2.40;;;2.00;;
39930;SDS011;26635;-35.248;149.138;2022-09-02T08:23:20;2.50;;;1.67;;
39930;SDS011;26635;-35.248;149.138;2022-09-02T08:26:02;2.90;;;1.60;;
39930;SDS011;26635;-35.248;149.138;2022-09-02T08:28:35;1.98;;;1.38;;
39930;SDS011;26635;-35.248;149.138;2022-09-02T08:31:07;2.05;;;1.40;;
39930;SDS011;26635;-35.248;149.138;2022-09-02T08:33:38;1.40;;;1.05;;
39930;SDS011;26635;-35.248;149.138;2022-09-02T08:36:11;1.48;;;1.33;;
39930;SDS011;26635;-35.248;149.138;2022-09-02T08:38:43;2.90;;;1.73;;
39930;SDS011;26635;-35.248;149.138;2022-09-02T08:41:22;2.70;;;1.52;;
39930;SDS011;26635;-35.248;149.138;2022-09-02T08:44:19;2.50;;;1.42;;
39930;SDS011;26635;-35.248;149.138;2022-09-02T08:46:53;2.63;;;1.70;;
39930;SDS011;26635;-35.248;149.138;2022-09-02T08:49:40;2.92;;;1.70;;
39930;SDS011;26635;-35.248;149.138;2022-09-02T08:52:19;2.63;;;1.48;;
39930;SDS011;26635;-35.248;149.138;2022-09-02T08:54:59;3.35;;;1.55;;
39930;SDS011;26635;-35.248;149.138;2022-09-02T08:57:31;2.97;;;1.38;;
39930;SDS011;26635;-35.248;149.138;2022-09-02T09:00:10;2.47;;;1.88;;
39930;SDS011;26635;-35.248;149.138;2022-09-02T09:05:36;3.17;;;1.65;;
39930;SDS011;26635;-35.248;149.138;2022-09-02T09:08:38;2.60;;;1.75;;
39930;SDS011;26635;-35.248;149.138;2022-09-02T09:11:55;4.03;;;1.90;;
39930;SDS011;26635;-35.248;149.138;2022-09-02T09:20:34;3.60;;;2.72;;
39930;SDS011;26635;-35.248;149.138;2022-09-02T09:23:17;3.33;;;2.00;;
39930;SDS011;26635;-35.248;149.138;2022-09-02T09:25:53;2.78;;;1.80;;
39930;SDS011;26635;-35.248;149.138;2022-09-02T09:28:27;2.38;;;1.67;;
39930;SDS011;26635;-35.248;149.138;2022-09-02T09:30:59;3.25;;;2.22;;
39930;SDS011;26635;-35.248;149.138;2022-09-02T09:33:31;2.35;;;1.73;;
39930;SDS011;26635;-35.248;149.138;2022-09-02T09:36:01;3.35;;;2.05;;
39930;SDS011;26635;-35.248;149.138;2022-09-02T09:38:33;5.80;;;2.45;;
39930;SDS011;26635;-35.248;149.138;2022-09-02T09:41:10;1.98;;;1.77;;
39930;SDS011;26635;-35.248;149.138;2022-09-02T09:43:49;1.85;;;1.45;;
39930;SDS011;26635;-35.248;149.138;2022-09-02T09:48:56;2.60;;;0.30;;
39930;SDS011;26635;-35.248;149.138;2022-09-02T09:51:27;1.13;;;0.17;;
39930;SDS011;26635;-35.248;149.138;2022-09-02T09:54:16;0.40;;;0.20;;
39930;SDS011;26635;-35.248;149.138;2022-09-02T09:56:47;0.50;;;0.20;;
39930;SDS011;26635;-35.248;149.138;2022-09-02T09:59:40;1.02;;;0.28;;
39930;SDS011;26635;-35.248;149.138;2022-09-02T10:02:20;1.15;;;0.20;;
39930;SDS011;26635;-35.248;149.138;2022-09-02T10:07:39;1.48;;;0.20;;
39930;SDS011;26635;-35.248;149.138;2022-09-02T10:10:14;0.77;;;0.20;;
39930;SDS011;26635;-35.248;149.138;2022-09-02T10:12:48;0.52;;;0.15;;
39930;SDS011;26635;-35.248;149.138;2022-09-02T10:26:47;3.47;;;0.30;;
39930;SDS011;26635;-35.248;149.138;2022-09-02T10:29:37;0.75;;;0.40;;
39930;SDS011;26635;-35.248;149.138;2022-09-02T10:44:13;2.42;;;0.30;;
39930;SDS011;26635;-35.248;149.138;2022-09-02T10:47:02;1.77;;;0.35;;
39930;SDS011;26635;-35.248;149.138;2022-09-02T10:55:17;2.60;;;0.70;;
39930;SDS011;26635;-35.248;149.138;2022-09-02T10:58:33;4.15;;;0.60;;
39930;SDS011;26635;-35.248;149.138;2022-09-02T11:01:17;1.80;;;0.80;;
39930;SDS011;26635;-35.248;149.138;2022-09-02T11:07:04;1.98;;;0.57;;
39930;SDS011;26635;-35.248;149.138;2022-09-02T11:12:46;2.70;;;0.50;;
39930;SDS011;26635;-35.248;149.138;2022-09-02T11:15:23;2.38;;;0.60;;
39930;SDS011;26635;-35.248;149.138;2022-09-02T11:18:21;4.88;;;0.88;;
39930;SDS011;26635;-35.248;149.138;2022-09-02T11:24:08;2.70;;;0.63;;
39930;SDS011;26635;-35.248;149.138;2022-09-02T11:26:45;5.55;;;0.80;;
39930;SDS011;26635;-35.248;149.138;2022-09-02T11:29:36;1.40;;;0.73;;
39930;SDS011;26635;-35.248;149.138;2022-09-02T11:35:02;2.55;;;0.60;;
39930;SDS011;26635;-35.248;149.138;2022-09-02T11:55:47;3.13;;;0.80;;
39930;SDS011;26635;-35.248;149.138;2022-09-02T11:58:30;2.33;;;0.60;;
39930;SDS011;26635;-35.248;149.138;2022-09-02T12:01:04;1.58;;;0.80;;
39930;SDS011;26635;-35.248;149.138;2022-09-02T12:04:02;3.47;;;0.68;;
39930;SDS011;26635;-35.248;149.138;2022-09-02T12:09:44;3.50;;;0.85;;
39930;SDS011;26635;-35.248;149.138;2022-09-02T12:15:16;2.00;;;0.80;;
39930;SDS011;26635;-35.248;149.138;2022-09-02T12:26:19;1.52;;;0.40;;
39930;SDS011;26635;-35.248;149.138;2022-09-02T12:29:11;2.25;;;0.65;;
39930;SDS011;26635;-35.248;149.138;2022-09-02T12:31:50;1.27;;;0.40;;
39930;SDS011;26635;-35.248;149.138;2022-09-02T12:36:58;2.80;;;0.55;;
39930;SDS011;26635;-35.248;149.138;2022-09-02T12:47:46;4.72;;;0.60;;
39930;SDS011;26635;-35.248;149.138;2022-09-02T12:56:04;7.25;;;0.50;;
39930;SDS011;26635;-35.248;149.138;2022-09-02T12:58:55;2.33;;;0.40;;
39930;SDS011;26635;-35.248;149.138;2022-09-02T13:01:36;1.90;;;0.60;;
39930;SDS011;26635;-35.248;149.138;2022-09-02T13:16:50;2.13;;;0.50;;
39930;SDS011;26635;-35.248;149.138;2022-09-02T13:31:22;2.33;;;0.45;;
39930;SDS011;26635;-35.248;149.138;2022-09-02T13:34:08;2.22;;;0.60;;
39930;SDS011;26635;-35.248;149.138;2022-09-02T13:36:44;3.53;;;0.60;;
39930;SDS011;26635;-35.248;149.138;2022-09-02T13:39:17;1.88;;;0.57;;
39930;SDS011;26635;-35.248;149.138;2022-09-02T13:41:56;4.50;;;0.43;;
39930;SDS011;26635;-35.248;149.138;2022-09-02T13:44:28;3.50;;;0.93;;
39930;SDS011;26635;-35.248;149.138;2022-09-02T13:47:04;1.55;;;0.70;;
39930;SDS011;26635;-35.248;149.138;2022-09-02T13:49:50;1.23;;;0.40;;
39930;SDS011;26635;-35.248;149.138;2022-09-02T13:52:23;3.00;;;0.60;;
39930;SDS011;26635;-35.248;149.138;2022-09-02T13:55:14;2.38;;;0.40;;
39930;SDS011;26635;-35.248;149.138;2022-09-02T13:58:06;3.30;;;0.30;;
39930;SDS011;26635;-35.248;149.138;2022-09-02T14:00:51;3.75;;;0.45;;
39930;SDS011;26635;-35.248;149.138;2022-09-02T14:03:28;4.75;;;0.57;;
39930;SDS011;26635;-35.248;149.138;2022-09-02T14:06:01;3.85;;;1.00;;
39930;SDS011;26635;-35.248;149.138;2022-09-02T14:08:35;7.03;;;2.75;;
39930;SDS011;26635;-35.248;149.138;2022-09-02T14:11:07;11.50;;;4.50;;
39930;SDS011;26635;-35.248;149.138;2022-09-02T14:13:45;7.53;;;3.67;;
39930;SDS011;26635;-35.248;149.138;2022-09-02T14:16:26;7.40;;;1.30;;
39930;SDS011;26635;-35.248;149.138;2022-09-02T14:19:06;3.50;;;0.32;;
39930;SDS011;26635;-35.248;149.138;2022-09-02T14:21:42;2.60;;;0.63;;
39930;SDS011;26635;-35.248;149.138;2022-09-02T14:24:19;3.80;;;0.95;;
39930;SDS011;26635;-35.248;149.138;2022-09-02T14:26:57;4.10;;;0.57;;
39930;SDS011;26635;-35.248;149.138;2022-09-02T14:29:30;2.03;;;0.30;;
39930;SDS011;26635;-35.248;149.138;2022-09-02T14:32:02;1.75;;;0.47;;
39930;SDS011;26635;-35.248;149.138;2022-09-02T14:37:54;1.52;;;0.43;;
39930;SDS011;26635;-35.248;149.138;2022-09-02T14:40:33;4.50;;;1.67;;
39930;SDS011;26635;-35.248;149.138;2022-09-02T14:43:15;15.13;;;6.75;;
39930;SDS011;26635;-35.248;149.138;2022-09-02T14:45:48;6.32;;;2.60;;
39930;SDS011;26635;-35.248;149.138;2022-09-02T14:48:25;3.17;;;0.50;;
39930;SDS011;26635;-35.248;149.138;2022-09-02T14:50:57;3.88;;;0.40;;
39930;SDS011;26635;-35.248;149.138;2022-09-02T14:53:30;4.60;;;0.65;;
39930;SDS011;26635;-35.248;149.138;2022-09-02T14:56:03;6.38;;;0.60;;
39930;SDS011;26635;-35.248;149.138;2022-09-02T14:58:35;2.65;;;0.57;;
39930;SDS011;26635;-35.248;149.138;2022-09-02T15:01:08;3.13;;;0.60;;
39930;SDS011;26635;-35.248;149.138;2022-09-02T15:03:40;2.90;;;0.40;;
39930;SDS011;26635;-35.248;149.138;2022-09-02T15:06:12;1.88;;;0.45;;
39930;SDS011;26635;-35.248;149.138;2022-09-02T15:08:44;0.77;;;0.35;;
39930;SDS011;26635;-35.248;149.138;2022-09-02T15:11:16;2.00;;;0.80;;
39930;SDS011;26635;-35.248;149.138;2022-09-02T15:13:48;1.27;;;0.70;;
39930;SDS011;26635;-35.248;149.138;2022-09-02T15:16:20;2.65;;;1.42;;
39930;SDS011;26635;-35.248;149.138;2022-09-02T15:18:51;3.53;;;0.50;;
39930;SDS011;26635;-35.248;149.138;2022-09-02T15:21:23;2.60;;;0.75;;
39930;SDS011;26635;-35.248;149.138;2022-09-02T15:23:54;5.70;;;0.95;;
39930;SDS011;26635;-35.248;149.138;2022-09-02T15:26:26;3.15;;;0.47;;
39930;SDS011;26635;-35.248;149.138;2022-09-02T15:28:58;2.15;;;0.45;;
39930;SDS011;26635;-35.248;149.138;2022-09-02T15:31:30;3.28;;;0.47;;
39930;SDS011;26635;-35.248;149.138;2022-09-02T15:34:01;2.35;;;0.35;;
39930;SDS011;26635;-35.248;149.138;2022-09-02T15:36:33;3.50;;;0.52;;
39930;SDS011;26635;-35.248;149.138;2022-09-02T15:39:05;3.28;;;1.67;;
39930;SDS011;26635;-35.248;149.138;2022-09-02T15:41:36;1.20;;;0.52;;
39930;SDS011;26635;-35.248;149.138;2022-09-02T15:44:08;1.30;;;0.50;;
39930;SDS011;26635;-35.248;149.138;2022-09-02T15:46:40;4.85;;;1.10;;
39930;SDS011;26635;-35.248;149.138;2022-09-02T15:49:13;2.07;;;0.73;;
39930;SDS011;26635;-35.248;149.138;2022-09-02T15:51:45;3.23;;;0.70;;
39930;SDS011;26635;-35.248;149.138;2022-09-02T15:54:22;3.73;;;0.40;;
39930;SDS011;26635;-35.248;149.138;2022-09-02T15:56:54;7.00;;;0.80;;
39930;SDS011;26635;-35.248;149.138;2022-09-02T15:59:26;2.25;;;0.30;;
39930;SDS011;26635;-35.248;149.138;2022-09-02T16:01:58;2.17;;;0.73;;
39930;SDS011;26635;-35.248;149.138;2022-09-02T16:04:31;0.80;;;0.40;;
39930;SDS011;26635;-35.248;149.138;2022-09-02T16:07:01;1.30;;;0.40;;
39930;SDS011;26635;-35.248;149.138;2022-09-02T16:09:32;1.73;;;0.50;;
39930;SDS011;26635;-35.248;149.138;2022-09-02T16:12:04;4.13;;;0.47;;
39930;SDS011;26635;-35.248;149.138;2022-09-02T16:14:36;3.42;;;0.50;;
39930;SDS011;26635;-35.248;149.138;2022-09-02T16:17:07;2.08;;;0.40;;
39930;SDS011;26635;-35.248;149.138;2022-09-02T16:19:38;3.95;;;0.40;;
39930;SDS011;26635;-35.248;149.138;2022-09-02T16:22:08;1.60;;;0.88;;
39930;SDS011;26635;-35.248;149.138;2022-09-02T16:24:42;3.17;;;0.30;;
39930;SDS011;26635;-35.248;149.138;2022-09-02T16:27:13;4.95;;;0.30;;
39930;SDS011;26635;-35.248;149.138;2022-09-02T16:30:03;1.75;;;0.22;;
39930;SDS011;26635;-35.248;149.138;2022-09-02T16:32:34;2.20;;;0.50;;
39930;SDS011;26635;-35.248;149.138;2022-09-02T16:35:07;2.67;;;0.50;;
39930;SDS011;26635;-35.248;149.138;2022-09-02T16:37:39;1.13;;;0.30;;
39930;SDS011;26635;-35.248;149.138;2022-09-02T16:40:11;1.50;;;0.50;;
39930;SDS011;26635;-35.248;149.138;2022-09-02T16:42:50;2.30;;;0.83;;
39930;SDS011;26635;-35.248;149.138;2022-09-02T16:45:20;2.67;;;0.67;;
39930;SDS011;26635;-35.248;149.138;2022-09-02T16:47:51;2.60;;;0.47;;
39930;SDS011;26635;-35.248;149.138;2022-09-02T16:50:22;2.47;;;0.43;;
39930;SDS011;26635;-35.248;149.138;2022-09-02T16:52:53;1.93;;;0.80;;
39930;SDS011;26635;-35.248;149.138;2022-09-02T16:55:23;2.53;;;0.60;;
39930;SDS011;26635;-35.248;149.138;2022-09-02T16:57:54;1.07;;;0.50;;
39930;SDS011;26635;-35.248;149.138;2022-09-02T17:00:27;1.13;;;0.30;;
39930;SDS011;26635;-35.248;149.138;2022-09-02T17:02:58;3.80;;;0.40;;
39930;SDS011;26635;-35.248;149.138;2022-09-02T17:05:29;2.00;;;0.47;;